Time;durP1;ratioP1;P1;durP2;ratioP2;P2;SDS_P1;SDS_P2;PMS_P1;PMS_P2;Temp;Humidity;BMP_temperature;BMP_pressure;BME280_temperature;BME280_humidity;BME280_pressure;Samples;Min_cycle;Max_cycle;Signal;HPM_P1;HPM_P2
2023/05/29 00:01:40;;;;;;;;;;;;;;;;;;5070479;28;19905;-51
2023/05/29 05:08:38;;;;;;;;;;;;;;;;;;5054950;28;19924;-48
2023/05/29 05:11:06;;;;;;;;;;;;;;;;;;5070150;28;20289;-47
2023/05/29 05:13:32;;;;;;;;;;;;;;;;;;5070210;28;19919;-49
2023/05/29 05:15:58;;;;;;;;;;;;;;;;;;5070167;28;20421;-48
2023/05/29 05:18:24;;;;;;;;;;;;;;;;;;5069169;28;19908;-48
2023/05/29 05:20:50;;;;;;;;;;;;;;;;;;5069567;28;19982;-49
2023/05/29 05:23:16;;;;;;;;;;;;;;;;;;5069925;28;19935;-48
2023/05/29 05:25:41;;;;;;;;;;;;;;;;;;5070471;28;20634;-48
2023/05/29 05:28:07;;;;;;;;;;;;;;;;;;5069519;28;19973;-48
2023/05/29 05:30:33;;;;;;;;;;;;;;;;;;5069807;28;19936;-50
2023/05/29 05:32:59;;;;;;;;;;;;;;;;;;5069518;28;19917;-51
2023/05/29 05:35:25;;;;;;;;;;;;;;;;;;5069549;28;19912;-51
2023/05/29 05:37:51;;;;;;;;;;;;;;;;;;5068716;28;19920;-48
2023/05/29 05:40:17;;;;;;;;;;;;;;;;;;5069582;28;19912;-48
2023/05/29 05:42:43;;;;;;;;;;;;;;;;;;5069654;28;20407;-51
2023/05/29 05:45:09;;;;;;;;;;;;;;;;;;5069919;28;20015;-48
2023/05/29 05:47:35;;;;;;;;;;;;;;;;;;5068718;28;19917;-51
2023/05/29 05:50:01;;;;;;;;;;;;;;;;;;5068327;28;19951;-50
2023/05/29 05:52:30;;;;;;;;;;;;;;;;;;5067927;28;19912;-47
2023/05/29 05:54:57;;;;;;;;;;;;;;;;;;5067263;28;19985;-48
2023/05/29 05:57:23;;;;;;;;;;;;;;;;;;5062501;28;20264;-50
2023/05/29 05:59:49;;;;;;;;;;;;;;;;;;5069411;28;19915;-51
2023/05/29 06:02:15;;;;;;;;;;;;;;;;;;5067606;28;19921;-51
2023/05/29 06:04:41;;;;;;;;;;;;;;;;;;5056618;28;19912;-48
2023/05/29 06:07:08;;;;;;;;;;;;;;;;;;5052503;28;19913;-50
2023/05/29 06:09:34;;;;;;;;;;;;;;;;;;5059282;28;19926;-51
2023/05/29 06:12:00;;;;;;;;;;;;;;;;;;5054672;28;19917;-49
2023/05/29 06:14:26;;;;;;;;;;;;;;;;;;5062110;28;19977;-51
2023/05/29 06:16:52;;;;;;;;;;;;;;;;;;5066804;28;19912;-51
2023/05/29 06:19:17;;;;;;;;;;;;;;;;;;5063257;28;20086;-52
2023/05/29 06:21:44;;;;;;;;;;;;;;;;;;5057235;28;19912;-39
2023/05/29 06:24:10;;;;;;;;;;;;;;;;;;5069404;28;19916;-39
2023/05/29 06:26:37;;;;;;;;;;;;;;;;;;5068931;28;19915;-39
2023/05/29 06:29:03;;;;;;;;;;;;;;;;;;5075213;28;19908;-39
2023/05/29 06:31:29;;;;;;;;;;;;;;;;;;5077358;28;19919;-39
2023/05/29 06:33:55;;;;;;;;;;;;;;;;;;5053305;28;19917;-39
2023/05/29 06:36:21;;;;;;;;;;;;;;;;;;5068795;28;19916;-39
2023/05/29 06:38:47;;;;;;;;;;;;;;;;;;5068995;28;19962;-39
2023/05/29 06:41:13;;;;;;;;;;;;;;;;;;5069076;28;20375;-39
2023/05/29 06:43:39;;;;;;;;;;;;;;;;;;5054549;28;20532;-38
2023/05/29 06:46:05;;;;;;;;;;;;;;;;;;5068334;28;19916;-39
2023/05/29 06:48:31;;;;;;;;;;;;;;;;;;5059368;28;19920;-39
2023/05/29 06:50:57;;;;;;;;;;;;;;;;;;5067248;28;19974;-39
2023/05/29 06:53:23;;;;;;;;;;;;;;;;;;5067417;28;19916;-39
2023/05/29 06:55:49;;;;;;;;;;;;;;;;;;5058725;28;20003;-39
2023/05/29 06:58:15;;;;;;;;;;;;;;;;;;5067663;28;19959;-39
2023/05/29 07:00:41;;;;;;;;;;;;;;;;;;5053142;28;19917;-39
2023/05/29 07:03:08;;;;;;;;;;;;;;;;;;5055568;28;19912;-38
2023/05/29 07:05:34;;;;;;;;;;;;;;;;;;5066421;28;19916;-39
2023/05/29 07:08:00;;;;;;;;;;;;;;;;;;5061897;28;20011;-39
2023/05/29 07:10:27;;;;;;;;;;;;;;;;;;5060793;28;19927;-39
2023/05/29 07:12:53;;;;;;;;;;;;;;;;;;5053100;28;19923;-39
2023/05/29 07:15:19;;;;;;;;;;;;;;;;;;5060107;28;19913;-39
2023/05/29 07:17:45;;;;;;;;;;;;;;;;;;5054168;28;20587;-39
2023/05/29 07:20:11;;;;;;;;;;;;;;;;;;5067352;28;19916;-39
2023/05/29 07:22:37;;;;;;;;;;;;;;;;;;5070494;28;19962;-39
2023/05/29 07:25:03;;;;;;;;;;;;;;;;;;5069722;28;20403;-39
2023/05/29 07:27:29;;;;;;;;;;;;;;;;;;5055324;28;19909;-39
2023/05/29 07:29:55;;;;;;;;;;;;;;;;;;5052047;28;19908;-39
2023/05/29 07:32:21;;;;;;;;;;;;;;;;;;5070366;28;20006;-39
2023/05/29 07:34:49;;;;;;;;;;;;;;;;;;5053439;28;19913;-39
2023/05/29 07:37:15;;;;;;;;;;;;;;;;;;5070903;28;19974;-39
2023/05/29 07:39:42;;;;;;;;;;;;;;;;;;5069947;28;19922;-39
2023/05/29 07:42:08;;;;;;;;;;;;;;;;;;5068940;28;20014;-39
2023/05/29 07:44:34;;;;;;;;;;;;;;;;;;5069195;28;20015;-39
2023/05/29 07:47:00;;;;;;;;;;;;;;;;;;5063958;28;19921;-39
2023/05/29 07:49:26;;;;;;;;;;;;;;;;;;5053664;28;19923;-39
2023/05/29 07:51:52;;;;;;;;;;;;;;;;;;5069755;28;19916;-39
2023/05/29 07:54:20;;;;;;;;;;;;;;;;;;5054162;28;19917;-39
2023/05/29 07:56:46;;;;;;;;;;;;;;;;;;5061006;28;19916;-39
2023/05/29 07:59:13;;;;;;;;;;;;;;;;;;5066252;28;19916;-39
2023/05/29 08:01:39;;;;;;;;;;;;;;;;;;5061497;28;19912;-39
2023/05/29 08:04:05;;;;;;;;;;;;;;;;;;5053264;28;20004;-39
2023/05/29 08:06:32;;;;;;;;;;;;;;;;;;5064640;28;20439;-39
2023/05/29 08:08:58;;;;;;;;;;;;;;;;;;5061428;28;19936;-39
2023/05/29 08:11:25;;;;;;;;;;;;;;;;;;5067048;28;20368;-39
2023/05/29 08:13:51;;;;;;;;;;;;;;;;;;5069682;28;20428;-39
2023/05/29 08:16:17;;;;;;;;;;;;;;;;;;5078058;28;19916;-39
2023/05/29 08:18:43;;;;;;;;;;;;;;;;;;5070163;28;19982;-40
2023/05/29 08:21:12;;;;;;;;;;;;;;;;;;5056035;28;20376;-40
2023/05/29 08:23:38;;;;;;;;;;;;;;;;;;5069081;28;19936;-40
2023/05/29 08:26:04;;;;;;;;;;;;;;;;;;5068666;28;20371;-40
2023/05/29 08:28:30;;;;;;;;;;;;;;;;;;5064855;28;19968;-40
2023/05/29 08:30:56;;;;;;;;;;;;;;;;;;5058347;28;20339;-40
2023/05/29 08:33:22;;;;;;;;;;;;;;;;;;5073764;28;19970;-39
2023/05/29 08:35:48;;;;;;;;;;;;;;;;;;5068257;28;19921;-40
2023/05/29 08:38:14;;;;;;;;;;;;;;;;;;5067168;28;19916;-39
2023/05/29 08:40:40;;;;;;;;;;;;;;;;;;5068693;28;19912;-40
2023/05/29 08:43:06;;;;;;;;;;;;;;;;;;5068381;28;19921;-39
2023/05/29 08:45:31;;;;;;;;;;;;;;;;;;5064816;28;19993;-40
2023/05/29 08:47:57;;;;;;;;;;;;;;;;;;5067700;28;19978;-40
2023/05/29 08:50:24;;;;;;;;;;;;;;;;;;5066870;28;20030;-39
2023/05/29 08:52:51;;;;;;;;;;;;;;;;;;5050820;28;19923;-40
2023/05/29 08:55:17;;;;;;;;;;;;;;;;;;5055864;28;19913;-40
2023/05/29 08:57:44;;;;;;;;;;;;;;;;;;5067290;28;20225;-39
2023/05/29 09:00:12;;;;;;;;;;;;;;;;;;5067674;28;19947;-40
2023/05/29 09:02:38;;;;;;;;;;;;;;;;;;5067488;28;19928;-39
2023/05/29 09:05:04;;;;;;;;;;;;;;;;;;5067302;28;20690;-40
2023/05/29 09:07:30;;;;;;;;;;;;;;;;;;5064413;28;19957;-41
2023/05/29 09:09:58;;;;;;;;;;;;;;;;;;5060491;28;19995;-40
2023/05/29 09:12:24;;;;;;;;;;;;;;;;;;5066661;28;19916;-40
2023/05/29 09:14:50;;;;;;;;;;;;;;;;;;5066786;28;20413;-40
2023/05/29 09:17:16;;;;;;;;;;;;;;;;;;5068261;28;20018;-40
2023/05/29 09:19:42;;;;;;;;;;;;;;;;;;5065634;28;19940;-40
2023/05/29 09:22:09;;;;;;;;;;;;;;;;;;5061419;28;19923;-40
2023/05/29 09:24:38;;;;;;;;;;;;;;;;;;5066794;28;19917;-40
2023/05/29 09:27:04;;;;;;;;;;;;;;;;;;5073805;28;20329;-40
2023/05/29 09:29:30;;;;;;;;;;;;;;;;;;5049236;28;20326;-40
2023/05/29 09:31:57;;;;;;;;;;;;;;;;;;5050830;28;19909;-40
2023/05/29 09:34:23;;;;;;;;;;;;;;;;;;5047818;28;19913;-40
2023/05/29 09:36:51;;;;;;;;;;;;;;;;;;5047985;28;19999;-40
2023/05/29 09:39:18;;;;;;;;;;;;;;;;;;5061983;28;19942;-40
2023/05/29 09:41:44;;;;;;;;;;;;;;;;;;5087071;28;20505;-40
2023/05/29 09:44:10;;;;;;;;;;;;;;;;;;5069256;28;19912;-40
2023/05/29 09:46:36;;;;;;;;;;;;;;;;;;5067812;28;19916;-40
2023/05/29 09:49:05;;;;;;;;;;;;;;;;;;5067610;28;19952;-40
2023/05/29 09:51:31;;;;;;;;;;;;;;;;;;5048509;28;19955;-40
2023/05/29 09:54:00;;;;;;;;;;;;;;;;;;5067578;28;19948;-40
2023/05/29 09:56:26;;;;;;;;;;;;;;;;;;5058233;28;20417;-40
2023/05/29 09:58:52;;;;;;;;;;;;;;;;;;5046973;28;19913;-40
2023/05/29 10:01:18;;;;;;;;;;;;;;;;;;5056160;28;19916;-40
2023/05/29 10:03:44;;;;;;;;;;;;;;;;;;5066839;28;19909;-40
2023/05/29 10:06:11;;;;;;;;;;;;;;;;;;5067378;28;20051;-40
2023/05/29 10:08:37;;;;;;;;;;;;;;;;;;5064700;28;19924;-40
2023/05/29 10:11:09;;;;;;;;;;;;;;;;;;5057680;28;19917;-40
2023/05/29 10:13:36;;;;;;;;;;;;;;;;;;5066884;28;19922;-40
2023/05/29 10:16:02;;;;;;;;;;;;;;;;;;5068482;28;20007;-40
2023/05/29 10:18:29;;;;;;;;;;;;;;;;;;5067274;28;19909;-40
2023/05/29 10:20:58;;;;;;;;;;;;;;;;;;5054273;28;20299;-40
2023/05/29 10:23:24;;;;;;;;;;;;;;;;;;5063144;28;19912;-40
2023/05/29 10:25:50;;;;;;;;;;;;;;;;;;5054637;28;19971;-40
2023/05/29 10:28:16;;;;;;;;;;;;;;;;;;5051043;28;19913;-40
2023/05/29 10:30:42;;;;;;;;;;;;;;;;;;5064393;28;20454;-40
2023/05/29 10:33:08;;;;;;;;;;;;;;;;;;5054548;28;19921;-41
2023/05/29 10:35:34;;;;;;;;;;;;;;;;;;5077464;28;19919;-40
2023/05/29 10:38:01;;;;;;;;;;;;;;;;;;5068755;28;20022;-40
2023/05/29 10:40:27;;;;;;;;;;;;;;;;;;5056631;28;19912;-41
2023/05/29 10:42:57;;;;;;;;;;;;;;;;;;5062456;28;19975;-40
2023/05/29 10:45:23;;;;;;;;;;;;;;;;;;5066069;28;20406;-41
2023/05/29 10:47:49;;;;;;;;;;;;;;;;;;5065090;28;19916;-40
2023/05/29 10:50:15;;;;;;;;;;;;;;;;;;5059235;28;19912;-41
2023/05/29 10:52:41;;;;;;;;;;;;;;;;;;5072664;28;19925;-41
2023/05/29 10:55:07;;;;;;;;;;;;;;;;;;5067125;28;19967;-41
2023/05/29 10:57:35;;;;;;;;;;;;;;;;;;5065888;28;20010;-41
2023/05/29 11:00:02;;;;;;;;;;;;;;;;;;5070088;28;20509;-40
2023/05/29 11:02:28;;;;;;;;;;;;;;;;;;5063683;28;20353;-40
2023/05/29 11:04:55;;;;;;;;;;;;;;;;;;5056138;28;19951;-40
2023/05/29 11:07:21;;;;;;;;;;;;;;;;;;5069662;28;19924;-40
2023/05/29 11:09:49;;;;;;;;;;;;;;;;;;5067482;28;20355;-40
2023/05/29 11:12:36;;;;;;;;;;;;;;;;;;5065515;28;19967;-40
2023/05/29 11:15:02;;;;;;;;;;;;;;;;;;5065291;28;19924;-40
2023/05/29 11:17:27;;;;;;;;;;;;;;;;;;5048289;28;20216;-40
2023/05/29 11:19:53;;;;;;;;;;;;;;;;;;5060797;28;19924;-40
2023/05/29 11:22:19;;;;;;;;;;;;;;;;;;5056826;28;20414;-40
2023/05/29 11:24:45;;;;;;;;;;;;;;;;;;5052714;28;19913;-40
2023/05/29 11:27:11;;;;;;;;;;;;;;;;;;5060612;28;20051;-40
2023/05/29 11:29:37;;;;;;;;;;;;;;;;;;5066025;28;19967;-40
2023/05/29 11:32:03;;;;;;;;;;;;;;;;;;5063611;28;19948;-40
2023/05/29 11:34:29;;;;;;;;;;;;;;;;;;5065243;28;19960;-40
2023/05/29 11:36:56;;;;;;;;;;;;;;;;;;5068834;28;19908;-40
2023/05/29 11:39:22;;;;;;;;;;;;;;;;;;5067867;28;19905;-40
2023/05/29 11:41:48;;;;;;;;;;;;;;;;;;5052041;28;19921;-40
2023/05/29 11:44:14;;;;;;;;;;;;;;;;;;5068107;28;20014;-40
2023/05/29 11:46:40;;;;;;;;;;;;;;;;;;5061471;28;20364;-41
2023/05/29 11:49:06;;;;;;;;;;;;;;;;;;5068549;28;20382;-41
2023/05/29 11:51:32;;;;;;;;;;;;;;;;;;5067078;28;19919;-41
2023/05/29 11:53:58;;;;;;;;;;;;;;;;;;5055188;28;19917;-41
2023/05/29 11:56:25;;;;;;;;;;;;;;;;;;5063214;28;20543;-41
2023/05/29 11:58:55;;;;;;;;;;;;;;;;;;5057727;28;19943;-41
2023/05/29 12:01:21;;;;;;;;;;;;;;;;;;5066711;28;20327;-41
2023/05/29 12:03:46;;;;;;;;;;;;;;;;;;5064414;28;20221;-41
2023/05/29 12:06:12;;;;;;;;;;;;;;;;;;5050129;28;19912;-41
2023/05/29 12:08:38;;;;;;;;;;;;;;;;;;5051768;28;19923;-41
2023/05/29 12:11:04;;;;;;;;;;;;;;;;;;5058267;28;19928;-41
2023/05/29 12:13:30;;;;;;;;;;;;;;;;;;5067687;28;19920;-41
2023/05/29 12:15:56;;;;;;;;;;;;;;;;;;5067911;28;19912;-41
2023/05/29 12:18:22;;;;;;;;;;;;;;;;;;5067621;28;19978;-41
2023/05/29 12:20:48;;;;;;;;;;;;;;;;;;5050652;28;19916;-41
2023/05/29 12:23:14;;;;;;;;;;;;;;;;;;5058766;28;19916;-41
2023/05/29 12:25:40;;;;;;;;;;;;;;;;;;5053789;28;20002;-41
2023/05/29 12:28:06;;;;;;;;;;;;;;;;;;5063714;28;19999;-47
2023/05/29 12:30:32;;;;;;;;;;;;;;;;;;5069562;28;20330;-41
2023/05/29 12:32:59;;;;;;;;;;;;;;;;;;5069064;28;19927;-41
2023/05/29 12:35:28;;;;;;;;;;;;;;;;;;5067378;28;19909;-47
2023/05/29 12:37:54;;;;;;;;;;;;;;;;;;5048400;28;19948;-47
2023/05/29 12:40:20;;;;;;;;;;;;;;;;;;5048695;28;19952;-47
2023/05/29 12:42:47;;;;;;;;;;;;;;;;;;5048693;28;19909;-47
2023/05/29 12:45:13;;;;;;;;;;;;;;;;;;5048714;28;19909;-47
2023/05/29 12:47:39;;;;;;;;;;;;;;;;;;5049344;28;19912;-49
2023/05/29 12:50:05;;;;;;;;;;;;;;;;;;5031409;28;19909;-49
2023/05/29 12:52:31;;;;;;;;;;;;;;;;;;5052982;28;19917;-48
2023/05/29 12:54:56;;;;;;;;;;;;;;;;;;5062056;28;19913;-48
2023/05/29 12:57:23;;;;;;;;;;;;;;;;;;5046782;28;20398;-47
2023/05/29 12:59:49;;;;;;;;;;;;;;;;;;5064446;28;19916;-46
2023/05/29 13:02:16;;;;;;;;;;;;;;;;;;5066639;28;20310;-47
2023/05/29 13:04:43;;;;;;;;;;;;;;;;;;5056794;28;19964;-47
2023/05/29 13:07:09;;;;;;;;;;;;;;;;;;5056382;28;19917;-48
2023/05/29 13:09:35;;;;;;;;;;;;;;;;;;5052017;28;19923;-46
2023/05/29 13:12:01;;;;;;;;;;;;;;;;;;5062636;28;19917;-46
2023/05/29 13:14:28;;;;;;;;;;;;;;;;;;5057942;28;20383;-47
2023/05/29 13:16:54;;;;;;;;;;;;;;;;;;5064935;28;19913;-47
2023/05/29 13:19:20;;;;;;;;;;;;;;;;;;5062905;28;20554;-48
2023/05/29 13:21:48;;;;;;;;;;;;;;;;;;5053492;28;20006;-47
2023/05/29 13:24:14;;;;;;;;;;;;;;;;;;5069659;28;19967;-46
2023/05/29 13:26:40;;;;;;;;;;;;;;;;;;5055801;28;19951;-47
2023/05/29 13:29:06;;;;;;;;;;;;;;;;;;5038748;28;19919;-45
2023/05/29 13:31:32;;;;;;;;;;;;;;;;;;5058667;28;19917;-46
2023/05/29 13:33:58;;;;;;;;;;;;;;;;;;5062371;28;19916;-45
2023/05/29 13:36:24;;;;;;;;;;;;;;;;;;5064927;28;19912;-48
2023/05/29 13:38:50;;;;;;;;;;;;;;;;;;5054723;28;19920;-46
2023/05/29 13:41:15;;;;;;;;;;;;;;;;;;5057444;28;19993;-46
2023/05/29 13:43:41;;;;;;;;;;;;;;;;;;5062703;28;19931;-49
2023/05/29 13:46:08;;;;;;;;;;;;;;;;;;5065452;28;20007;-47
2023/05/29 13:48:34;;;;;;;;;;;;;;;;;;5064490;28;19967;-48
2023/05/29 13:51:00;;;;;;;;;;;;;;;;;;5063201;28;19927;-48
2023/05/29 13:53:26;;;;;;;;;;;;;;;;;;5044916;28;20388;-49
2023/05/29 13:55:53;;;;;;;;;;;;;;;;;;5061292;28;19916;-47
2023/05/29 13:58:20;;;;;;;;;;;;;;;;;;5063140;28;20379;-47
2023/05/29 14:00:46;;;;;;;;;;;;;;;;;;5062634;28;19912;-50
2023/05/29 14:03:12;;;;;;;;;;;;;;;;;;5063505;28;20383;-48
2023/05/29 14:05:38;;;;;;;;;;;;;;;;;;5065106;28;19908;-47
2023/05/29 14:08:04;;;;;;;;;;;;;;;;;;5045257;28;19924;-49
2023/05/29 14:10:30;;;;;;;;;;;;;;;;;;5063943;28;20042;-47
2023/05/29 14:12:57;;;;;;;;;;;;;;;;;;5062880;28;19920;-49
2023/05/29 14:15:23;;;;;;;;;;;;;;;;;;5050244;28;19913;-47
2023/05/29 14:17:49;;;;;;;;;;;;;;;;;;5062619;28;20442;-47
2023/05/29 14:20:14;;;;;;;;;;;;;;;;;;5040097;28;20257;-49
2023/05/29 14:22:40;;;;;;;;;;;;;;;;;;5058086;28;20011;-48
2023/05/29 14:25:07;;;;;;;;;;;;;;;;;;5056129;28;19913;-48
2023/05/29 14:27:33;;;;;;;;;;;;;;;;;;5036524;28;19912;-47
2023/05/29 14:30:00;;;;;;;;;;;;;;;;;;5079600;28;20298;-50
2023/05/29 14:32:26;;;;;;;;;;;;;;;;;;5084409;28;19943;-50
2023/05/29 14:34:53;;;;;;;;;;;;;;;;;;5057247;28;19970;-48
2023/05/29 14:37:18;;;;;;;;;;;;;;;;;;5056476;28;19913;-46
2023/05/29 14:39:44;;;;;;;;;;;;;;;;;;5072158;28;19962;-50
2023/05/29 14:42:10;;;;;;;;;;;;;;;;;;5064133;28;19917;-47
2023/05/29 14:44:36;;;;;;;;;;;;;;;;;;5041835;28;19920;-46
2023/05/29 14:47:02;;;;;;;;;;;;;;;;;;5062817;28;19946;-47
2023/05/29 14:49:31;;;;;;;;;;;;;;;;;;5058730;28;19919;-51
2023/05/29 14:51:58;;;;;;;;;;;;;;;;;;5026502;28;20338;-48
2023/05/29 14:54:24;;;;;;;;;;;;;;;;;;5049833;28;19916;-49
2023/05/29 14:56:51;;;;;;;;;;;;;;;;;;5052796;28;19921;-50
2023/05/29 14:59:18;;;;;;;;;;;;;;;;;;5061431;28;19919;-47
2023/05/29 15:01:44;;;;;;;;;;;;;;;;;;5045504;28;19958;-49
2023/05/29 15:04:10;;;;;;;;;;;;;;;;;;5062642;28;19924;-48
2023/05/29 15:06:36;;;;;;;;;;;;;;;;;;5064425;28;20276;-47
2023/05/29 15:09:02;;;;;;;;;;;;;;;;;;5047716;28;20370;-46
2023/05/29 15:11:28;;;;;;;;;;;;;;;;;;5057087;28;19924;-46
2023/05/29 15:13:54;;;;;;;;;;;;;;;;;;5040463;28;20280;-48
2023/05/29 15:16:20;;;;;;;;;;;;;;;;;;5061720;28;19927;-46
2023/05/29 15:18:46;;;;;;;;;;;;;;;;;;5059188;28;19913;-49
2023/05/29 15:21:13;;;;;;;;;;;;;;;;;;5026721;28;20012;-48
2023/05/29 15:23:43;;;;;;;;;;;;;;;;;;5060894;28;19998;-47
2023/05/29 15:26:09;;;;;;;;;;;;;;;;;;5062517;28;19916;-48
2023/05/29 15:28:35;;;;;;;;;;;;;;;;;;5061864;28;20171;-48
2023/05/29 15:31:00;;;;;;;;;;;;;;;;;;5035741;28;20415;-47
2023/05/29 15:33:26;;;;;;;;;;;;;;;;;;5062954;28;19912;-46
2023/05/29 15:35:52;;;;;;;;;;;;;;;;;;5060342;28;20392;-48
2023/05/29 15:38:18;;;;;;;;;;;;;;;;;;5029641;28;19974;-48
2023/05/29 15:40:44;;;;;;;;;;;;;;;;;;5061012;28;20451;-49
2023/05/29 15:43:11;;;;;;;;;;;;;;;;;;5066043;28;19920;-48
2023/05/29 15:45:37;;;;;;;;;;;;;;;;;;5050484;28;20280;-48
2023/05/29 15:48:03;;;;;;;;;;;;;;;;;;5066714;28;20009;-46
2023/05/29 15:50:29;;;;;;;;;;;;;;;;;;5066206;28;20427;-48
2023/05/29 15:52:55;;;;;;;;;;;;;;;;;;5063734;28;19920;-49
2023/05/29 15:55:21;;;;;;;;;;;;;;;;;;5063066;28;20265;-47
2023/05/29 15:57:47;;;;;;;;;;;;;;;;;;5057568;28;19924;-48
2023/05/29 16:00:13;;;;;;;;;;;;;;;;;;5066358;28;19923;-49
2023/05/29 16:02:39;;;;;;;;;;;;;;;;;;5049415;28;19908;-47
2023/05/29 16:05:05;;;;;;;;;;;;;;;;;;5047969;28;19999;-49
2023/05/29 16:07:31;;;;;;;;;;;;;;;;;;5054631;28;20207;-48
2023/05/29 16:09:57;;;;;;;;;;;;;;;;;;5044135;28;20012;-50
2023/05/29 16:12:24;;;;;;;;;;;;;;;;;;5042333;28;19913;-46
2023/05/29 16:14:50;;;;;;;;;;;;;;;;;;5046293;28;19920;-49
2023/05/29 16:17:15;;;;;;;;;;;;;;;;;;5045892;28;19913;-49
2023/05/29 16:19:41;;;;;;;;;;;;;;;;;;5045184;28;20343;-49
2023/05/29 16:22:07;;;;;;;;;;;;;;;;;;5034194;28;19936;-47
2023/05/29 16:24:34;;;;;;;;;;;;;;;;;;5028030;28;19913;-47
2023/05/29 16:27:03;;;;;;;;;;;;;;;;;;5047663;28;19925;-47
2023/05/29 16:29:29;;;;;;;;;;;;;;;;;;5044762;28;19923;-51
2023/05/29 16:31:55;;;;;;;;;;;;;;;;;;5042852;28;20004;-50
2023/05/29 16:34:21;;;;;;;;;;;;;;;;;;5026566;28;20387;-46
2023/05/29 16:36:47;;;;;;;;;;;;;;;;;;5027016;28;19917;-49
2023/05/29 16:39:15;;;;;;;;;;;;;;;;;;5034158;28;20391;-49
2023/05/29 16:41:44;;;;;;;;;;;;;;;;;;5046279;28;19970;-48
2023/05/29 16:44:10;;;;;;;;;;;;;;;;;;5043585;28;19912;-49
2023/05/29 16:46:36;;;;;;;;;;;;;;;;;;5044366;28;20403;-47
2023/05/29 16:49:02;;;;;;;;;;;;;;;;;;5045648;28;20031;-49
2023/05/29 16:51:29;;;;;;;;;;;;;;;;;;5045560;28;19913;-47
2023/05/29 16:53:55;;;;;;;;;;;;;;;;;;5043274;28;19995;-47
2023/05/29 16:56:21;;;;;;;;;;;;;;;;;;5045006;28;20147;-48
2023/05/29 16:58:47;;;;;;;;;;;;;;;;;;5043743;28;19912;-47
2023/05/29 17:01:14;;;;;;;;;;;;;;;;;;5045346;28;19923;-49
2023/05/29 17:03:40;;;;;;;;;;;;;;;;;;5026234;28;20284;-47
2023/05/29 17:06:07;;;;;;;;;;;;;;;;;;5034569;28;20012;-49
2023/05/29 17:08:33;;;;;;;;;;;;;;;;;;5045554;28;19917;-47
2023/05/29 17:10:59;;;;;;;;;;;;;;;;;;5062483;28;19916;-47
2023/05/29 17:13:26;;;;;;;;;;;;;;;;;;5065313;28;19916;-48
2023/05/29 17:15:52;;;;;;;;;;;;;;;;;;5064557;28;19912;-48
2023/05/29 17:18:18;;;;;;;;;;;;;;;;;;5063900;28;19912;-47
2023/05/29 17:20:44;;;;;;;;;;;;;;;;;;5054402;28;19939;-47
2023/05/29 17:23:10;;;;;;;;;;;;;;;;;;5064322;28;20000;-46
2023/05/29 17:25:36;;;;;;;;;;;;;;;;;;5048060;28;20435;-48
2023/05/29 17:28:02;;;;;;;;;;;;;;;;;;5035082;28;19916;-48
2023/05/29 17:30:28;;;;;;;;;;;;;;;;;;5053379;28;19953;-46
2023/05/29 17:32:54;;;;;;;;;;;;;;;;;;5029304;28;19917;-47
2023/05/29 17:35:20;;;;;;;;;;;;;;;;;;5061299;28;19916;-46
2023/05/29 17:37:46;;;;;;;;;;;;;;;;;;5052725;28;19954;-48
2023/05/29 17:40:12;;;;;;;;;;;;;;;;;;5064028;28;19916;-46
2023/05/29 17:42:38;;;;;;;;;;;;;;;;;;5060721;28;19963;-48
2023/05/29 17:45:05;;;;;;;;;;;;;;;;;;5059800;28;19913;-47
2023/05/29 17:47:31;;;;;;;;;;;;;;;;;;5063147;28;20663;-48
2023/05/29 17:49:57;;;;;;;;;;;;;;;;;;5062115;28;19919;-49
2023/05/29 17:52:23;;;;;;;;;;;;;;;;;;5064167;28;19959;-50
2023/05/29 17:54:49;;;;;;;;;;;;;;;;;;5060226;28;19928;-47
2023/05/29 17:57:16;;;;;;;;;;;;;;;;;;5061450;28;19969;-48
2023/05/29 17:59:43;;;;;;;;;;;;;;;;;;5060342;28;20011;-49
2023/05/29 18:02:10;;;;;;;;;;;;;;;;;;5058566;28;20002;-47
2023/05/29 18:04:36;;;;;;;;;;;;;;;;;;5061072;28;19920;-47
2023/05/29 18:07:02;;;;;;;;;;;;;;;;;;5055855;28;19970;-47
2023/05/29 18:09:28;;;;;;;;;;;;;;;;;;5053291;28;19913;-49
2023/05/29 18:11:54;;;;;;;;;;;;;;;;;;5057328;28;20410;-46
2023/05/29 18:14:20;;;;;;;;;;;;;;;;;;5034168;28;19924;-48
2023/05/29 18:16:46;;;;;;;;;;;;;;;;;;5053589;28;20311;-49
2023/05/29 18:19:12;;;;;;;;;;;;;;;;;;5058583;28;19936;-47
2023/05/29 18:21:38;;;;;;;;;;;;;;;;;;5061406;28;19920;-48
2023/05/29 18:24:04;;;;;;;;;;;;;;;;;;5056553;28;19923;-47
2023/05/29 18:26:30;;;;;;;;;;;;;;;;;;5042450;28;19923;-49
2023/05/29 18:29:02;;;;;;;;;;;;;;;;;;5062440;28;19921;-46
2023/05/29 18:31:28;;;;;;;;;;;;;;;;;;5057424;28;20371;-48
2023/05/29 18:33:54;;;;;;;;;;;;;;;;;;5063926;28;19927;-46
2023/05/29 18:36:20;;;;;;;;;;;;;;;;;;5062807;28;19913;-47
2023/05/29 18:38:46;;;;;;;;;;;;;;;;;;5040980;28;20368;-50
2023/05/29 18:41:12;;;;;;;;;;;;;;;;;;5033064;28;19924;-50
2023/05/29 18:43:38;;;;;;;;;;;;;;;;;;5065610;28;19916;-48
2023/05/29 18:46:04;;;;;;;;;;;;;;;;;;5033080;28;19917;-48
2023/05/29 18:48:31;;;;;;;;;;;;;;;;;;5045540;28;19939;-51
2023/05/29 18:50:59;;;;;;;;;;;;;;;;;;5060301;28;20391;-49
2023/05/29 18:53:25;;;;;;;;;;;;;;;;;;5065329;28;19917;-46
2023/05/29 18:55:51;;;;;;;;;;;;;;;;;;5064059;28;19916;-52
2023/05/29 18:58:17;;;;;;;;;;;;;;;;;;5059876;28;19969;-48
2023/05/29 19:00:43;;;;;;;;;;;;;;;;;;5062030;28;19962;-47
2023/05/29 19:03:09;;;;;;;;;;;;;;;;;;5049039;28;19909;-47
2023/05/29 19:05:35;;;;;;;;;;;;;;;;;;5054842;28;19939;-47
2023/05/29 19:08:06;;;;;;;;;;;;;;;;;;5060229;28;19985;-46
2023/05/29 19:10:32;;;;;;;;;;;;;;;;;;5063735;28;19920;-48
2023/05/29 19:12:58;;;;;;;;;;;;;;;;;;5060392;28;19973;-47
2023/05/29 19:15:24;;;;;;;;;;;;;;;;;;5065555;28;19909;-47
2023/05/29 19:17:50;;;;;;;;;;;;;;;;;;5067522;28;19939;-46
2023/05/29 19:20:16;;;;;;;;;;;;;;;;;;5068260;28;19912;-47
2023/05/29 19:22:45;;;;;;;;;;;;;;;;;;5035192;28;19917;-50
2023/05/29 19:25:11;;;;;;;;;;;;;;;;;;5066529;28;19999;-47
2023/05/29 19:27:37;;;;;;;;;;;;;;;;;;5069412;28;20015;-47
2023/05/29 19:30:05;;;;;;;;;;;;;;;;;;5050838;28;20552;-47
2023/05/29 19:32:31;;;;;;;;;;;;;;;;;;5058686;28;19916;-49
2023/05/29 19:34:57;;;;;;;;;;;;;;;;;;5067361;28;19920;-50
2023/05/29 19:37:23;;;;;;;;;;;;;;;;;;5048731;28;19939;-46
2023/05/29 19:39:53;;;;;;;;;;;;;;;;;;5065405;28;19917;-47
2023/05/29 19:42:22;;;;;;;;;;;;;;;;;;5068253;28;19913;-51
2023/05/29 19:44:48;;;;;;;;;;;;;;;;;;5068590;28;19924;-48
2023/05/29 19:47:14;;;;;;;;;;;;;;;;;;5066384;28;19921;-50
2023/05/29 19:49:42;;;;;;;;;;;;;;;;;;5048119;28;19916;-49
2023/05/29 19:52:09;;;;;;;;;;;;;;;;;;5067548;28;19917;-51
2023/05/29 19:54:35;;;;;;;;;;;;;;;;;;5059015;28;19920;-48
2023/05/29 19:57:02;;;;;;;;;;;;;;;;;;5035305;28;20419;-48
2023/05/29 19:59:28;;;;;;;;;;;;;;;;;;5060817;28;19912;-48
2023/05/29 20:01:54;;;;;;;;;;;;;;;;;;5061466;28;19919;-51
2023/05/29 20:04:20;;;;;;;;;;;;;;;;;;5054323;28;20307;-49
2023/05/29 20:06:46;;;;;;;;;;;;;;;;;;5067716;28;20007;-49
2023/05/29 20:09:12;;;;;;;;;;;;;;;;;;5065318;28;19916;-50
2023/05/29 20:11:38;;;;;;;;;;;;;;;;;;5065155;28;19920;-49
2023/05/29 20:14:04;;;;;;;;;;;;;;;;;;5067564;28;19935;-48
2023/05/29 20:16:30;;;;;;;;;;;;;;;;;;5066252;28;19908;-50
2023/05/29 20:18:56;;;;;;;;;;;;;;;;;;5064130;28;19912;-48
2023/05/29 20:21:23;;;;;;;;;;;;;;;;;;5057080;28;19935;-49
2023/05/29 20:23:49;;;;;;;;;;;;;;;;;;5064742;28;19914;-47
2023/05/29 20:26:15;;;;;;;;;;;;;;;;;;5063321;28;19913;-48
2023/05/29 20:28:41;;;;;;;;;;;;;;;;;;5058297;28;19913;-47
2023/05/29 20:31:07;;;;;;;;;;;;;;;;;;5057804;28;19916;-50
2023/05/29 20:33:33;;;;;;;;;;;;;;;;;;5062483;28;19927;-50
2023/05/29 20:35:59;;;;;;;;;;;;;;;;;;5066683;28;19932;-50
2023/05/29 20:38:25;;;;;;;;;;;;;;;;;;5048015;28;19939;-47
2023/05/29 20:40:53;;;;;;;;;;;;;;;;;;5064727;28;19912;-47
2023/05/29 20:43:22;;;;;;;;;;;;;;;;;;5067182;28;20295;-47
2023/05/29 20:45:49;;;;;;;;;;;;;;;;;;5068270;28;19920;-46
2023/05/29 20:48:14;;;;;;;;;;;;;;;;;;5060123;28;19982;-47
2023/05/29 20:50:40;;;;;;;;;;;;;;;;;;5063736;28;20469;-48
2023/05/29 20:53:06;;;;;;;;;;;;;;;;;;5065993;28;19916;-48
2023/05/29 20:55:33;;;;;;;;;;;;;;;;;;5039226;28;19917;-49
2023/05/29 20:57:59;;;;;;;;;;;;;;;;;;5065730;28;19999;-48
2023/05/29 21:00:26;;;;;;;;;;;;;;;;;;5064926;28;19912;-48
2023/05/29 21:02:52;;;;;;;;;;;;;;;;;;5067389;28;19959;-48
2023/05/29 21:05:18;;;;;;;;;;;;;;;;;;5067608;28;20360;-47
2023/05/29 21:07:44;;;;;;;;;;;;;;;;;;5049369;28;19954;-47
2023/05/29 21:10:10;;;;;;;;;;;;;;;;;;5068281;28;20003;-48
2023/05/29 21:12:36;;;;;;;;;;;;;;;;;;5049630;28;19915;-47
2023/05/29 21:15:02;;;;;;;;;;;;;;;;;;5066598;28;19912;-50
2023/05/29 21:17:28;;;;;;;;;;;;;;;;;;5066806;28;19913;-51
2023/05/29 21:19:55;;;;;;;;;;;;;;;;;;5067192;28;19977;-50
2023/05/29 21:22:21;;;;;;;;;;;;;;;;;;5067064;28;19916;-49
2023/05/29 21:24:47;;;;;;;;;;;;;;;;;;5067290;28;20415;-48
2023/05/29 21:27:13;;;;;;;;;;;;;;;;;;5067168;28;20019;-49
2023/05/29 21:29:39;;;;;;;;;;;;;;;;;;5067071;28;19912;-48
2023/05/29 21:32:05;;;;;;;;;;;;;;;;;;5066966;28;19908;-49
2023/05/29 21:34:33;;;;;;;;;;;;;;;;;;5066531;28;19942;-47
2023/05/29 21:36:59;;;;;;;;;;;;;;;;;;5067175;28;20581;-51
2023/05/29 21:39:25;;;;;;;;;;;;;;;;;;5048434;28;20022;-50
2023/05/29 21:41:51;;;;;;;;;;;;;;;;;;5067123;28;19916;-47
2023/05/29 21:44:17;;;;;;;;;;;;;;;;;;5067092;28;20002;-48